sensor_id;sensor_type;location;lat;lon;timestamp;temperature;humidity
80134;SHT30;69443;51.442;10.564;2023-08-06T00:01:37;18.56;57.85
80134;SHT30;69443;51.442;10.564;2023-08-06T00:04:03;18.56;57.92
80134;SHT30;69443;51.442;10.564;2023-08-06T00:06:28;18.52;57.97
80134;SHT30;69443;51.442;10.564;2023-08-06T00:08:54;18.52;57.98
80134;SHT30;69443;51.442;10.564;2023-08-06T00:11:20;18.48;57.95
80134;SHT30;69443;51.442;10.564;2023-08-06T00:13:46;18.48;58.01
80134;SHT30;69443;51.442;10.564;2023-08-06T00:16:12;18.42;58.03
80134;SHT30;69443;51.442;10.564;2023-08-06T00:18:38;18.41;58.16
80134;SHT30;69443;51.442;10.564;2023-08-06T00:21:04;18.38;58.18
80134;SHT30;69443;51.442;10.564;2023-08-06T00:23:29;18.37;58.18
80134;SHT30;69443;51.442;10.564;2023-08-06T00:25:55;18.34;58.24
80134;SHT30;69443;51.442;10.564;2023-08-06T00:28:20;18.35;58.31
80134;SHT30;69443;51.442;10.564;2023-08-06T00:30:45;18.30;58.29
80134;SHT30;69443;51.442;10.564;2023-08-06T00:33:11;18.23;58.34
80134;SHT30;69443;51.442;10.564;2023-08-06T00:35:36;18.24;58.36
80134;SHT30;69443;51.442;10.564;2023-08-06T00:38:02;18.23;58.49
80134;SHT30;69443;51.442;10.564;2023-08-06T00:40:27;18.18;58.54
80134;SHT30;69443;51.442;10.564;2023-08-06T00:42:55;18.18;58.47
80134;SHT30;69443;51.442;10.564;2023-08-06T00:45:21;18.13;58.50
80134;SHT30;69443;51.442;10.564;2023-08-06T00:47:47;18.10;58.49
80134;SHT30;69443;51.442;10.564;2023-08-06T00:50:13;18.07;58.54
80134;SHT30;69443;51.442;10.564;2023-08-06T00:52:38;18.04;58.58
80134;SHT30;69443;51.442;10.564;2023-08-06T00:55:05;18.01;58.66
80134;SHT30;69443;51.442;10.564;2023-08-06T00:57:31;17.98;58.62
80134;SHT30;69443;51.442;10.564;2023-08-06T00:59:56;18.00;58.59
80134;SHT30;69443;51.442;10.564;2023-08-06T01:02:22;17.97;58.63
80134;SHT30;69443;51.442;10.564;2023-08-06T01:04:47;17.93;58.76
80134;SHT30;69443;51.442;10.564;2023-08-06T01:07:29;17.94;58.82
80134;SHT30;69443;51.442;10.564;2023-08-06T01:15:32;17.89;58.95
80134;SHT30;69443;51.442;10.564;2023-08-06T01:18:00;17.89;58.78
80134;SHT30;69443;51.442;10.564;2023-08-06T01:20:30;17.83;58.89
80134;SHT30;69443;51.442;10.564;2023-08-06T01:22:55;17.83;58.84
80134;SHT30;69443;51.442;10.564;2023-08-06T01:25:21;17.79;58.72
80134;SHT30;69443;51.442;10.564;2023-08-06T01:27:53;17.76;58.66
80134;SHT30;69443;51.442;10.564;2023-08-06T01:30:26;17.76;58.72
80134;SHT30;69443;51.442;10.564;2023-08-06T01:32:54;17.73;58.69
80134;SHT30;69443;51.442;10.564;2023-08-06T01:35:21;17.69;58.70
80134;SHT30;69443;51.442;10.564;2023-08-06T01:37:48;17.71;58.78
80134;SHT30;69443;51.442;10.564;2023-08-06T01:40:13;17.66;58.81
80134;SHT30;69443;51.442;10.564;2023-08-06T01:42:39;17.66;58.78
80134;SHT30;69443;51.442;10.564;2023-08-06T01:45:09;17.63;58.90
80134;SHT30;69443;51.442;10.564;2023-08-06T01:47:34;17.59;58.88
80134;SHT30;69443;51.442;10.564;2023-08-06T01:50:00;17.58;58.88
80134;SHT30;69443;51.442;10.564;2023-08-06T01:52:27;17.56;58.86
80134;SHT30;69443;51.442;10.564;2023-08-06T01:54:52;17.58;58.90
80134;SHT30;69443;51.442;10.564;2023-08-06T01:57:18;17.54;58.84
80134;SHT30;69443;51.442;10.564;2023-08-06T01:59:43;17.54;58.89
80134;SHT30;69443;51.442;10.564;2023-08-06T02:02:09;17.52;59.04
80134;SHT30;69443;51.442;10.564;2023-08-06T02:04:34;17.46;59.13
80134;SHT30;69443;51.442;10.564;2023-08-06T02:06:59;17.48;59.13
80134;SHT30;69443;51.442;10.564;2023-08-06T02:09:25;17.48;59.15
80134;SHT30;69443;51.442;10.564;2023-08-06T02:11:50;17.45;59.20
80134;SHT30;69443;51.442;10.564;2023-08-06T02:14:15;17.46;59.26
80134;SHT30;69443;51.442;10.564;2023-08-06T02:16:41;17.45;59.24
80134;SHT30;69443;51.442;10.564;2023-08-06T02:19:06;17.42;59.30
80134;SHT30;69443;51.442;10.564;2023-08-06T02:21:32;17.42;59.40
80134;SHT30;69443;51.442;10.564;2023-08-06T02:23:57;17.41;59.43
80134;SHT30;69443;51.442;10.564;2023-08-06T02:26:22;17.38;59.49
80134;SHT30;69443;51.442;10.564;2023-08-06T02:28:48;17.37;59.51
80134;SHT30;69443;51.442;10.564;2023-08-06T02:31:13;17.37;59.47
80134;SHT30;69443;51.442;10.564;2023-08-06T02:33:39;17.35;59.48
80134;SHT30;69443;51.442;10.564;2023-08-06T02:36:04;17.32;59.54
80134;SHT30;69443;51.442;10.564;2023-08-06T02:38:33;17.30;59.50
80134;SHT30;69443;51.442;10.564;2023-08-06T02:41:02;17.30;59.63
80134;SHT30;69443;51.442;10.564;2023-08-06T02:43:27;17.30;59.61
80134;SHT30;69443;51.442;10.564;2023-08-06T02:45:56;17.27;59.80
80134;SHT30;69443;51.442;10.564;2023-08-06T02:48:22;17.27;59.70
80134;SHT30;69443;51.442;10.564;2023-08-06T02:50:47;17.24;59.68
80134;SHT30;69443;51.442;10.564;2023-08-06T02:53:12;17.21;59.72
80134;SHT30;69443;51.442;10.564;2023-08-06T02:55:38;17.23;59.73
80134;SHT30;69443;51.442;10.564;2023-08-06T02:58:09;17.16;59.61
80134;SHT30;69443;51.442;10.564;2023-08-06T03:00:35;17.18;59.54
80134;SHT30;69443;51.442;10.564;2023-08-06T03:03:00;17.14;59.62
80134;SHT30;69443;51.442;10.564;2023-08-06T03:05:26;17.11;59.65
80134;SHT30;69443;51.442;10.564;2023-08-06T03:07:51;17.13;59.63
80134;SHT30;69443;51.442;10.564;2023-08-06T03:10:16;17.10;59.67
80134;SHT30;69443;51.442;10.564;2023-08-06T03:12:42;17.07;59.70
80134;SHT30;69443;51.442;10.564;2023-08-06T03:15:07;17.09;59.70
80134;SHT30;69443;51.442;10.564;2023-08-06T03:17:33;17.06;59.73
80134;SHT30;69443;51.442;10.564;2023-08-06T03:19:58;17.03;59.84
80134;SHT30;69443;51.442;10.564;2023-08-06T03:22:24;17.02;59.86
80134;SHT30;69443;51.442;10.564;2023-08-06T03:24:52;16.99;60.06
80134;SHT30;69443;51.442;10.564;2023-08-06T03:27:17;16.99;59.89
80134;SHT30;69443;51.442;10.564;2023-08-06T03:29:43;16.96;60.03
80134;SHT30;69443;51.442;10.564;2023-08-06T03:32:08;16.96;60.18
80134;SHT30;69443;51.442;10.564;2023-08-06T03:34:33;16.97;60.26
80134;SHT30;69443;51.442;10.564;2023-08-06T03:36:59;16.93;60.38
80134;SHT30;69443;51.442;10.564;2023-08-06T03:39:24;16.92;60.45
80134;SHT30;69443;51.442;10.564;2023-08-06T03:41:50;16.94;60.48
80134;SHT30;69443;51.442;10.564;2023-08-06T03:44:15;16.90;60.68
80134;SHT30;69443;51.442;10.564;2023-08-06T03:46:40;16.93;60.68
80134;SHT30;69443;51.442;10.564;2023-08-06T03:49:06;16.92;60.69
80134;SHT30;69443;51.442;10.564;2023-08-06T03:51:31;16.92;60.65
80134;SHT30;69443;51.442;10.564;2023-08-06T03:53:56;16.90;60.59
80134;SHT30;69443;51.442;10.564;2023-08-06T03:56:22;16.90;60.65
80134;SHT30;69443;51.442;10.564;2023-08-06T03:58:47;16.84;60.70
80134;SHT30;69443;51.442;10.564;2023-08-06T04:01:13;16.87;60.72
80134;SHT30;69443;51.442;10.564;2023-08-06T04:03:38;16.84;60.74
80134;SHT30;69443;51.442;10.564;2023-08-06T04:06:03;16.83;60.77
80134;SHT30;69443;51.442;10.564;2023-08-06T04:08:29;16.84;60.90
80134;SHT30;69443;51.442;10.564;2023-08-06T04:10:54;16.84;60.95
80134;SHT30;69443;51.442;10.564;2023-08-06T04:13:20;16.80;60.97
80134;SHT30;69443;51.442;10.564;2023-08-06T04:15:46;16.79;61.00
80134;SHT30;69443;51.442;10.564;2023-08-06T04:18:12;16.77;60.99
80134;SHT30;69443;51.442;10.564;2023-08-06T04:20:44;16.75;61.09
80134;SHT30;69443;51.442;10.564;2023-08-06T04:23:10;16.75;60.91
80134;SHT30;69443;51.442;10.564;2023-08-06T04:25:35;16.73;60.96
80134;SHT30;69443;51.442;10.564;2023-08-06T04:28:00;16.72;60.91
80134;SHT30;69443;51.442;10.564;2023-08-06T04:30:26;16.72;60.87
80134;SHT30;69443;51.442;10.564;2023-08-06T04:32:51;16.73;60.92
80134;SHT30;69443;51.442;10.564;2023-08-06T04:35:16;16.71;60.84
80134;SHT30;69443;51.442;10.564;2023-08-06T04:37:42;16.68;60.89
80134;SHT30;69443;51.442;10.564;2023-08-06T04:40:08;16.71;60.94
80134;SHT30;69443;51.442;10.564;2023-08-06T04:42:33;16.69;60.89
80134;SHT30;69443;51.442;10.564;2023-08-06T04:45:01;16.65;60.93
80134;SHT30;69443;51.442;10.564;2023-08-06T04:47:27;16.66;60.92
80134;SHT30;69443;51.442;10.564;2023-08-06T04:49:52;16.64;60.98
80134;SHT30;69443;51.442;10.564;2023-08-06T04:52:18;16.65;60.92
80134;SHT30;69443;51.442;10.564;2023-08-06T04:54:43;16.62;60.97
80134;SHT30;69443;51.442;10.564;2023-08-06T04:57:09;16.64;60.97
80134;SHT30;69443;51.442;10.564;2023-08-06T04:59:35;16.64;60.89
80134;SHT30;69443;51.442;10.564;2023-08-06T05:02:00;16.62;61.02
80134;SHT30;69443;51.442;10.564;2023-08-06T05:04:25;16.62;61.21
80134;SHT30;69443;51.442;10.564;2023-08-06T05:06:51;16.64;61.28
80134;SHT30;69443;51.442;10.564;2023-08-06T05:09:16;16.62;61.31
80134;SHT30;69443;51.442;10.564;2023-08-06T05:11:42;16.61;61.42
80134;SHT30;69443;51.442;10.564;2023-08-06T05:14:07;16.61;61.38
80134;SHT30;69443;51.442;10.564;2023-08-06T05:16:32;16.61;61.45
80134;SHT30;69443;51.442;10.564;2023-08-06T05:18:58;16.58;61.55
80134;SHT30;69443;51.442;10.564;2023-08-06T05:21:23;16.59;61.52
80134;SHT30;69443;51.442;10.564;2023-08-06T05:23:49;16.58;61.51
80134;SHT30;69443;51.442;10.564;2023-08-06T05:26:14;16.58;61.54
80134;SHT30;69443;51.442;10.564;2023-08-06T05:28:43;16.58;61.62
80134;SHT30;69443;51.442;10.564;2023-08-06T05:31:09;16.58;61.66
80134;SHT30;69443;51.442;10.564;2023-08-06T05:33:34;16.58;61.69
80134;SHT30;69443;51.442;10.564;2023-08-06T05:36:00;16.56;61.75
80134;SHT30;69443;51.442;10.564;2023-08-06T05:38:25;16.58;61.78
80134;SHT30;69443;51.442;10.564;2023-08-06T05:40:50;16.59;61.72
80134;SHT30;69443;51.442;10.564;2023-08-06T05:43:16;16.56;61.68
80134;SHT30;69443;51.442;10.564;2023-08-06T05:45:45;16.61;61.82
80134;SHT30;69443;51.442;10.564;2023-08-06T05:48:11;16.64;61.74
80134;SHT30;69443;51.442;10.564;2023-08-06T05:50:37;16.64;61.86
80134;SHT30;69443;51.442;10.564;2023-08-06T05:53:02;16.66;61.95
80134;SHT30;69443;51.442;10.564;2023-08-06T05:55:28;16.68;61.93
80134;SHT30;69443;51.442;10.564;2023-08-06T05:57:53;16.71;62.04
80134;SHT30;69443;51.442;10.564;2023-08-06T06:00:20;16.75;62.06
80134;SHT30;69443;51.442;10.564;2023-08-06T06:02:46;16.75;62.09
80134;SHT30;69443;51.442;10.564;2023-08-06T06:05:11;16.75;62.22
80134;SHT30;69443;51.442;10.564;2023-08-06T06:07:36;16.77;62.22
80134;SHT30;69443;51.442;10.564;2023-08-06T06:10:02;16.80;62.19
80134;SHT30;69443;51.442;10.564;2023-08-06T06:12:27;16.83;62.30
80134;SHT30;69443;51.442;10.564;2023-08-06T06:14:52;16.86;62.33
80134;SHT30;69443;51.442;10.564;2023-08-06T06:17:18;16.89;62.33
80134;SHT30;69443;51.442;10.564;2023-08-06T06:19:43;16.92;62.35
80134;SHT30;69443;51.442;10.564;2023-08-06T06:22:09;16.97;62.33
80134;SHT30;69443;51.442;10.564;2023-08-06T06:24:34;16.99;62.20
80134;SHT30;69443;51.442;10.564;2023-08-06T06:27:00;17.03;62.23
80134;SHT30;69443;51.442;10.564;2023-08-06T06:29:25;17.04;62.17
80134;SHT30;69443;51.442;10.564;2023-08-06T06:31:51;17.13;62.17
80134;SHT30;69443;51.442;10.564;2023-08-06T06:34:16;17.11;62.10
80134;SHT30;69443;51.442;10.564;2023-08-06T06:36:41;17.17;62.00
80134;SHT30;69443;51.442;10.564;2023-08-06T06:39:07;17.23;61.82
80134;SHT30;69443;51.442;10.564;2023-08-06T06:41:33;17.27;61.71
80134;SHT30;69443;51.442;10.564;2023-08-06T06:43:58;17.31;61.45
80134;SHT30;69443;51.442;10.564;2023-08-06T06:46:24;17.39;61.35
80134;SHT30;69443;51.442;10.564;2023-08-06T06:48:49;17.45;61.13
80134;SHT30;69443;51.442;10.564;2023-08-06T06:51:15;17.51;60.90
80134;SHT30;69443;51.442;10.564;2023-08-06T06:53:40;17.58;60.72
80134;SHT30;69443;51.442;10.564;2023-08-06T06:56:05;17.65;60.64
80134;SHT30;69443;51.442;10.564;2023-08-06T06:58:31;17.71;60.47
80134;SHT30;69443;51.442;10.564;2023-08-06T07:00:57;17.80;60.43
80134;SHT30;69443;51.442;10.564;2023-08-06T07:03:23;17.85;60.19
80134;SHT30;69443;51.442;10.564;2023-08-06T07:05:49;17.91;60.09
80134;SHT30;69443;51.442;10.564;2023-08-06T07:08:14;17.97;60.05
80134;SHT30;69443;51.442;10.564;2023-08-06T07:10:41;18.00;59.92
80134;SHT30;69443;51.442;10.564;2023-08-06T07:13:06;18.13;59.75
80134;SHT30;69443;51.442;10.564;2023-08-06T07:15:32;18.20;59.59
80134;SHT30;69443;51.442;10.564;2023-08-06T07:17:57;18.28;59.37
80134;SHT30;69443;51.442;10.564;2023-08-06T07:20:23;18.44;59.28
80134;SHT30;69443;51.442;10.564;2023-08-06T07:22:48;18.55;59.17
80134;SHT30;69443;51.442;10.564;2023-08-06T07:25:15;18.69;58.90
80134;SHT30;69443;51.442;10.564;2023-08-06T07:27:41;18.80;58.74
80134;SHT30;69443;51.442;10.564;2023-08-06T07:30:07;18.93;58.45
80134;SHT30;69443;51.442;10.564;2023-08-06T07:32:32;19.08;58.31
80134;SHT30;69443;51.442;10.564;2023-08-06T07:34:58;19.22;58.05
80134;SHT30;69443;51.442;10.564;2023-08-06T07:37:28;19.35;57.71
80134;SHT30;69443;51.442;10.564;2023-08-06T07:39:54;19.49;57.53
80134;SHT30;69443;51.442;10.564;2023-08-06T07:42:20;19.61;57.25
80134;SHT30;69443;51.442;10.564;2023-08-06T07:44:57;19.70;57.53
80134;SHT30;69443;51.442;10.564;2023-08-06T07:47:23;19.83;56.95
80134;SHT30;69443;51.442;10.564;2023-08-06T07:49:49;19.96;56.84
80134;SHT30;69443;51.442;10.564;2023-08-06T07:52:14;20.06;56.69
80134;SHT30;69443;51.442;10.564;2023-08-06T07:54:40;20.18;56.53
80134;SHT30;69443;51.442;10.564;2023-08-06T07:57:05;20.27;56.44
80134;SHT30;69443;51.442;10.564;2023-08-06T07:59:31;20.38;56.39
80134;SHT30;69443;51.442;10.564;2023-08-06T08:01:57;20.46;56.36
80134;SHT30;69443;51.442;10.564;2023-08-06T08:04:23;20.57;56.24
80134;SHT30;69443;51.442;10.564;2023-08-06T08:06:48;20.66;56.34
80134;SHT30;69443;51.442;10.564;2023-08-06T08:09:14;20.76;56.32
80134;SHT30;69443;51.442;10.564;2023-08-06T08:11:40;20.81;56.31
80134;SHT30;69443;51.442;10.564;2023-08-06T08:14:06;20.91;56.31
80134;SHT30;69443;51.442;10.564;2023-08-06T08:16:31;21.01;56.20
80134;SHT30;69443;51.442;10.564;2023-08-06T08:18:57;21.11;56.12
80134;SHT30;69443;51.442;10.564;2023-08-06T08:21:22;21.20;56.12
80134;SHT30;69443;51.442;10.564;2023-08-06T08:23:49;21.27;56.11
80134;SHT30;69443;51.442;10.564;2023-08-06T08:26:15;21.34;55.99
80134;SHT30;69443;51.442;10.564;2023-08-06T08:28:40;21.45;55.90
80134;SHT30;69443;51.442;10.564;2023-08-06T08:31:08;21.56;55.87
80134;SHT30;69443;51.442;10.564;2023-08-06T08:33:34;21.65;55.74
80134;SHT30;69443;51.442;10.564;2023-08-06T08:36:00;21.72;55.89
80134;SHT30;69443;51.442;10.564;2023-08-06T08:38:25;21.86;55.88
80134;SHT30;69443;51.442;10.564;2023-08-06T08:40:52;21.97;55.86
80134;SHT30;69443;51.442;10.564;2023-08-06T08:43:21;22.04;55.84
80134;SHT30;69443;51.442;10.564;2023-08-06T08:45:50;22.17;55.84
80134;SHT30;69443;51.442;10.564;2023-08-06T08:48:17;22.27;55.68
80134;SHT30;69443;51.442;10.564;2023-08-06T08:50:45;22.42;55.76
80134;SHT30;69443;51.442;10.564;2023-08-06T08:53:14;22.49;55.85
80134;SHT30;69443;51.442;10.564;2023-08-06T08:55:40;22.59;55.69
80134;SHT30;69443;51.442;10.564;2023-08-06T08:58:07;22.73;55.85
80134;SHT30;69443;51.442;10.564;2023-08-06T09:00:33;22.86;55.68
80134;SHT30;69443;51.442;10.564;2023-08-06T09:03:00;22.96;55.73
80134;SHT30;69443;51.442;10.564;2023-08-06T09:05:28;23.06;55.66
80134;SHT30;69443;51.442;10.564;2023-08-06T09:08:02;23.14;55.63
80134;SHT30;69443;51.442;10.564;2023-08-06T09:10:27;23.31;55.40
80134;SHT30;69443;51.442;10.564;2023-08-06T09:12:53;23.46;55.17
80134;SHT30;69443;51.442;10.564;2023-08-06T09:15:20;23.59;54.84
80134;SHT30;69443;51.442;10.564;2023-08-06T09:17:45;23.74;54.78
80134;SHT30;69443;51.442;10.564;2023-08-06T09:20:14;23.84;54.80
80134;SHT30;69443;51.442;10.564;2023-08-06T09:22:40;23.96;54.67
80134;SHT30;69443;51.442;10.564;2023-08-06T09:25:07;24.07;54.59
80134;SHT30;69443;51.442;10.564;2023-08-06T09:27:39;24.20;54.42
80134;SHT30;69443;51.442;10.564;2023-08-06T09:30:05;24.26;54.32
80134;SHT30;69443;51.442;10.564;2023-08-06T09:32:45;24.39;54.21
80134;SHT30;69443;51.442;10.564;2023-08-06T09:35:15;24.43;54.12
80134;SHT30;69443;51.442;10.564;2023-08-06T09:37:42;24.51;54.06
80134;SHT30;69443;51.442;10.564;2023-08-06T09:40:30;24.56;53.63
80134;SHT30;69443;51.442;10.564;2023-08-06T09:42:57;24.58;54.02
80134;SHT30;69443;51.442;10.564;2023-08-06T09:45:24;24.65;54.12
80134;SHT30;69443;51.442;10.564;2023-08-06T09:47:56;24.67;54.01
80134;SHT30;69443;51.442;10.564;2023-08-06T09:50:21;24.69;54.10
80134;SHT30;69443;51.442;10.564;2023-08-06T09:52:48;24.69;54.12
80134;SHT30;69443;51.442;10.564;2023-08-06T09:55:16;24.75;54.06
80134;SHT30;69443;51.442;10.564;2023-08-06T09:57:42;24.75;54.04
80134;SHT30;69443;51.442;10.564;2023-08-06T10:00:09;24.83;53.90
80134;SHT30;69443;51.442;10.564;2023-08-06T10:02:38;24.90;53.83
80134;SHT30;69443;51.442;10.564;2023-08-06T10:05:08;24.95;53.81
80134;SHT30;69443;51.442;10.564;2023-08-06T10:07:36;25.00;53.72
80134;SHT30;69443;51.442;10.564;2023-08-06T10:10:02;25.07;53.57
80134;SHT30;69443;51.442;10.564;2023-08-06T10:12:40;25.20;53.40
80134;SHT30;69443;51.442;10.564;2023-08-06T10:15:14;25.37;53.22
80134;SHT30;69443;51.442;10.564;2023-08-06T10:17:41;25.58;52.87
80134;SHT30;69443;51.442;10.564;2023-08-06T10:20:08;25.70;52.69
80134;SHT30;69443;51.442;10.564;2023-08-06T10:22:34;25.80;52.76
80134;SHT30;69443;51.442;10.564;2023-08-06T10:25:01;25.84;52.72
80134;SHT30;69443;51.442;10.564;2023-08-06T10:27:34;25.87;52.84
80134;SHT30;69443;51.442;10.564;2023-08-06T10:30:31;25.91;52.71
80134;SHT30;69443;51.442;10.564;2023-08-06T10:33:00;25.94;52.96
80134;SHT30;69443;51.442;10.564;2023-08-06T10:38:05;26.10;52.89
80134;SHT30;69443;51.442;10.564;2023-08-06T10:40:32;26.21;52.65
80134;SHT30;69443;51.442;10.564;2023-08-06T10:43:01;26.31;52.54
80134;SHT30;69443;51.442;10.564;2023-08-06T10:45:27;26.41;52.65
80134;SHT30;69443;51.442;10.564;2023-08-06T10:47:54;26.52;52.54
80134;SHT30;69443;51.442;10.564;2023-08-06T10:50:24;26.63;52.22
80134;SHT30;69443;51.442;10.564;2023-08-06T10:52:50;26.76;51.13
80134;SHT30;69443;51.442;10.564;2023-08-06T10:55:25;26.88;50.94
80134;SHT30;69443;51.442;10.564;2023-08-06T10:57:52;26.98;51.27
80134;SHT30;69443;51.442;10.564;2023-08-06T11:00:18;27.03;51.28
80134;SHT30;69443;51.442;10.564;2023-08-06T11:02:43;27.04;51.29
80134;SHT30;69443;51.442;10.564;2023-08-06T11:05:11;27.05;51.36
80134;SHT30;69443;51.442;10.564;2023-08-06T11:07:37;27.10;51.45
80134;SHT30;69443;51.442;10.564;2023-08-06T11:10:08;27.10;51.12
80134;SHT30;69443;51.442;10.564;2023-08-06T11:12:34;27.10;51.24
80134;SHT30;69443;51.442;10.564;2023-08-06T11:15:00;27.10;51.38
80134;SHT30;69443;51.442;10.564;2023-08-06T11:17:29;27.08;51.25
80134;SHT30;69443;51.442;10.564;2023-08-06T11:19:55;27.07;51.34
80134;SHT30;69443;51.442;10.564;2023-08-06T11:22:21;27.04;51.40
80134;SHT30;69443;51.442;10.564;2023-08-06T11:24:48;27.04;51.20
80134;SHT30;69443;51.442;10.564;2023-08-06T11:27:15;27.03;51.03
80134;SHT30;69443;51.442;10.564;2023-08-06T11:29:41;27.01;50.40
80134;SHT30;69443;51.442;10.564;2023-08-06T11:32:10;26.98;50.79
80134;SHT30;69443;51.442;10.564;2023-08-06T11:34:37;27.00;50.06
80134;SHT30;69443;51.442;10.564;2023-08-06T11:37:03;27.03;50.02
80134;SHT30;69443;51.442;10.564;2023-08-06T11:39:30;27.05;50.42
80134;SHT30;69443;51.442;10.564;2023-08-06T11:41:55;27.07;50.41
80134;SHT30;69443;51.442;10.564;2023-08-06T11:44:21;27.04;50.58
80134;SHT30;69443;51.442;10.564;2023-08-06T11:46:55;27.04;50.44
80134;SHT30;69443;51.442;10.564;2023-08-06T11:52:25;27.03;49.76
80134;SHT30;69443;51.442;10.564;2023-08-06T11:57:29;26.98;50.64
80134;SHT30;69443;51.442;10.564;2023-08-06T12:00:08;26.96;50.50
80134;SHT30;69443;51.442;10.564;2023-08-06T12:02:34;27.00;50.58
80134;SHT30;69443;51.442;10.564;2023-08-06T12:05:04;27.04;50.44
80134;SHT30;69443;51.442;10.564;2023-08-06T12:07:31;27.07;50.53
80134;SHT30;69443;51.442;10.564;2023-08-06T12:09:58;27.14;50.47
80134;SHT30;69443;51.442;10.564;2023-08-06T12:12:24;27.22;50.36
80134;SHT30;69443;51.442;10.564;2023-08-06T12:14:49;27.31;50.30
80134;SHT30;69443;51.442;10.564;2023-08-06T12:17:15;27.38;50.23
80134;SHT30;69443;51.442;10.564;2023-08-06T12:19:40;27.45;50.09
80134;SHT30;69443;51.442;10.564;2023-08-06T12:22:05;27.49;50.03
80134;SHT30;69443;51.442;10.564;2023-08-06T12:24:31;27.52;50.01
80134;SHT30;69443;51.442;10.564;2023-08-06T12:26:59;27.55;49.91
80134;SHT30;69443;51.442;10.564;2023-08-06T12:29:27;27.55;49.92
80134;SHT30;69443;51.442;10.564;2023-08-06T12:31:53;27.52;49.91
80134;SHT30;69443;51.442;10.564;2023-08-06T12:34:18;27.53;50.04
80134;SHT30;69443;51.442;10.564;2023-08-06T12:36:44;27.60;50.03
80134;SHT30;69443;51.442;10.564;2023-08-06T12:39:09;27.69;49.88
80134;SHT30;69443;51.442;10.564;2023-08-06T12:41:35;27.79;49.69
80134;SHT30;69443;51.442;10.564;2023-08-06T12:44:01;27.89;49.57
80134;SHT30;69443;51.442;10.564;2023-08-06T12:46:26;27.98;49.19
80134;SHT30;69443;51.442;10.564;2023-08-06T12:48:51;28.14;49.13
80134;SHT30;69443;51.442;10.564;2023-08-06T12:51:17;28.28;48.55
80134;SHT30;69443;51.442;10.564;2023-08-06T12:53:42;28.34;48.48
80134;SHT30;69443;51.442;10.564;2023-08-06T12:56:08;28.41;48.20
80134;SHT30;69443;51.442;10.564;2023-08-06T12:58:33;28.44;47.82
80134;SHT30;69443;51.442;10.564;2023-08-06T13:00:58;28.42;47.63
80134;SHT30;69443;51.442;10.564;2023-08-06T13:03:24;28.45;47.59
80134;SHT30;69443;51.442;10.564;2023-08-06T13:05:50;28.45;47.67
80134;SHT30;69443;51.442;10.564;2023-08-06T13:08:15;28.44;47.52
80134;SHT30;69443;51.442;10.564;2023-08-06T13:10:40;28.39;47.71
80134;SHT30;69443;51.442;10.564;2023-08-06T13:13:06;28.38;47.65
80134;SHT30;69443;51.442;10.564;2023-08-06T13:15:31;28.31;47.44
80134;SHT30;69443;51.442;10.564;2023-08-06T13:17:57;28.32;47.50
80134;SHT30;69443;51.442;10.564;2023-08-06T13:20:22;28.28;47.58
80134;SHT30;69443;51.442;10.564;2023-08-06T13:22:48;28.31;47.67
80134;SHT30;69443;51.442;10.564;2023-08-06T13:25:16;28.34;47.74
80134;SHT30;69443;51.442;10.564;2023-08-06T13:27:42;28.39;47.75
80134;SHT30;69443;51.442;10.564;2023-08-06T13:30:09;28.39;47.74
80134;SHT30;69443;51.442;10.564;2023-08-06T13:32:35;28.44;47.36
80134;SHT30;69443;51.442;10.564;2023-08-06T13:35:05;28.49;46.96
80134;SHT30;69443;51.442;10.564;2023-08-06T13:37:30;28.51;46.74
80134;SHT30;69443;51.442;10.564;2023-08-06T13:39:56;28.53;46.71
80134;SHT30;69443;51.442;10.564;2023-08-06T13:42:21;28.55;46.59
80134;SHT30;69443;51.442;10.564;2023-08-06T13:44:47;28.56;46.38
80134;SHT30;69443;51.442;10.564;2023-08-06T13:47:12;28.56;46.48
80134;SHT30;69443;51.442;10.564;2023-08-06T13:49:38;28.52;46.58
80134;SHT30;69443;51.442;10.564;2023-08-06T13:52:03;28.55;47.01
80134;SHT30;69443;51.442;10.564;2023-08-06T13:54:29;28.49;46.98
80134;SHT30;69443;51.442;10.564;2023-08-06T13:56:54;28.45;46.48
80134;SHT30;69443;51.442;10.564;2023-08-06T13:59:20;28.41;46.91
80134;SHT30;69443;51.442;10.564;2023-08-06T14:01:46;28.37;46.73
80134;SHT30;69443;51.442;10.564;2023-08-06T14:04:12;28.29;46.81
80134;SHT30;69443;51.442;10.564;2023-08-06T14:06:38;28.25;46.78
80134;SHT30;69443;51.442;10.564;2023-08-06T14:09:03;28.20;46.48
80134;SHT30;69443;51.442;10.564;2023-08-06T14:11:29;28.15;46.14
80134;SHT30;69443;51.442;10.564;2023-08-06T14:13:55;28.07;46.46
80134;SHT30;69443;51.442;10.564;2023-08-06T14:16:20;27.97;46.98
80134;SHT30;69443;51.442;10.564;2023-08-06T14:18:45;27.86;47.48
80134;SHT30;69443;51.442;10.564;2023-08-06T14:21:11;27.76;47.96
80134;SHT30;69443;51.442;10.564;2023-08-06T14:23:36;27.63;48.40
80134;SHT30;69443;51.442;10.564;2023-08-06T14:26:02;27.50;48.60
80134;SHT30;69443;51.442;10.564;2023-08-06T14:28:27;27.35;48.65
80134;SHT30;69443;51.442;10.564;2023-08-06T14:30:52;27.22;48.75
80134;SHT30;69443;51.442;10.564;2023-08-06T14:33:18;27.14;48.77
80134;SHT30;69443;51.442;10.564;2023-08-06T14:35:43;27.05;48.43
80134;SHT30;69443;51.442;10.564;2023-08-06T14:38:09;26.98;48.29
80134;SHT30;69443;51.442;10.564;2023-08-06T14:40:35;26.96;48.54
80134;SHT30;69443;51.442;10.564;2023-08-06T14:43:05;26.93;48.74
80134;SHT30;69443;51.442;10.564;2023-08-06T14:45:30;26.90;48.75
80134;SHT30;69443;51.442;10.564;2023-08-06T14:47:56;26.84;48.16
80134;SHT30;69443;51.442;10.564;2023-08-06T14:50:21;26.83;48.37
80134;SHT30;69443;51.442;10.564;2023-08-06T14:52:47;26.82;48.78
80134;SHT30;69443;51.442;10.564;2023-08-06T14:55:17;26.78;48.72
80134;SHT30;69443;51.442;10.564;2023-08-06T14:57:47;26.76;48.68
80134;SHT30;69443;51.442;10.564;2023-08-06T15:00:13;26.69;48.47
80134;SHT30;69443;51.442;10.564;2023-08-06T15:02:38;26.68;48.27
80134;SHT30;69443;51.442;10.564;2023-08-06T15:05:04;26.68;48.04
80134;SHT30;69443;51.442;10.564;2023-08-06T15:07:29;26.62;48.13
80134;SHT30;69443;51.442;10.564;2023-08-06T15:09:58;26.60;48.33
80134;SHT30;69443;51.442;10.564;2023-08-06T15:12:23;26.59;48.30
80134;SHT30;69443;51.442;10.564;2023-08-06T15:14:49;26.57;48.25
80134;SHT30;69443;51.442;10.564;2023-08-06T15:17:14;26.57;48.15
80134;SHT30;69443;51.442;10.564;2023-08-06T15:19:40;26.56;47.92
80134;SHT30;69443;51.442;10.564;2023-08-06T15:22:05;26.55;47.80
80134;SHT30;69443;51.442;10.564;2023-08-06T15:24:31;26.59;47.95